sensor_id;sensor_type;location;lat;lon;timestamp;P1;durP1;ratioP1;P2;durP2;ratioP2
61477;SDS011;47345;52.334;10.392;2023-06-01T00:01:07;11.30;;;4.20;;
61477;SDS011;47345;52.334;10.392;2023-06-01T00:03:40;8.60;;;3.10;;
61477;SDS011;47345;52.334;10.392;2023-06-01T00:06:12;7.40;;;3.40;;
61477;SDS011;47345;52.334;10.392;2023-06-01T00:08:44;11.10;;;3.60;;
61477;SDS011;47345;52.334;10.392;2023-06-01T00:11:14;6.60;;;3.40;;
61477;SDS011;47345;52.334;10.392;2023-06-01T00:13:45;6.40;;;3.30;;
61477;SDS011;47345;52.334;10.392;2023-06-01T00:16:16;8.90;;;3.50;;
61477;SDS011;47345;52.334;10.392;2023-06-01T00:18:47;6.10;;;3.50;;
61477;SDS011;47345;52.334;10.392;2023-06-01T00:21:20;13.70;;;4.00;;
61477;SDS011;47345;52.334;10.392;2023-06-01T00:23:51;6.30;;;3.40;;
61477;SDS011;47345;52.334;10.392;2023-06-01T00:26:22;9.60;;;3.60;;
61477;SDS011;47345;52.334;10.392;2023-06-01T00:28:52;5.90;;;2.90;;
61477;SDS011;47345;52.334;10.392;2023-06-01T00:31:23;4.60;;;2.90;;
61477;SDS011;47345;52.334;10.392;2023-06-01T00:33:55;4.70;;;3.00;;
61477;SDS011;47345;52.334;10.392;2023-06-01T00:36:26;7.70;;;3.60;;
61477;SDS011;47345;52.334;10.392;2023-06-01T00:38:57;7.10;;;3.20;;
61477;SDS011;47345;52.334;10.392;2023-06-01T00:41:30;8.20;;;3.60;;
61477;SDS011;47345;52.334;10.392;2023-06-01T00:44:02;4.40;;;2.80;;
61477;SDS011;47345;52.334;10.392;2023-06-01T00:46:33;6.00;;;2.90;;
61477;SDS011;47345;52.334;10.392;2023-06-01T00:49:05;7.30;;;3.30;;
61477;SDS011;47345;52.334;10.392;2023-06-01T00:51:37;5.30;;;3.70;;
61477;SDS011;47345;52.334;10.392;2023-06-01T00:54:08;7.30;;;3.60;;
61477;SDS011;47345;52.334;10.392;2023-06-01T00:56:39;5.00;;;3.10;;
61477;SDS011;47345;52.334;10.392;2023-06-01T00:59:10;6.70;;;3.70;;
61477;SDS011;47345;52.334;10.392;2023-06-01T01:01:42;11.30;;;4.50;;
61477;SDS011;47345;52.334;10.392;2023-06-01T01:04:13;12.80;;;4.70;;
61477;SDS011;47345;52.334;10.392;2023-06-01T01:06:56;6.10;;;3.60;;
61477;SDS011;47345;52.334;10.392;2023-06-01T01:09:33;5.60;;;3.10;;
61477;SDS011;47345;52.334;10.392;2023-06-01T01:12:12;5.10;;;3.60;;
61477;SDS011;47345;52.334;10.392;2023-06-01T01:14:52;6.50;;;3.80;;
61477;SDS011;47345;52.334;10.392;2023-06-01T01:17:29;8.50;;;3.20;;
61477;SDS011;47345;52.334;10.392;2023-06-01T01:20:08;9.10;;;3.40;;
61477;SDS011;47345;52.334;10.392;2023-06-01T01:23:02;6.40;;;3.70;;
61477;SDS011;47345;52.334;10.392;2023-06-01T01:26:00;6.20;;;4.00;;
61477;SDS011;47345;52.334;10.392;2023-06-01T01:28:42;8.00;;;3.70;;
61477;SDS011;47345;52.334;10.392;2023-06-01T01:31:17;5.60;;;3.70;;
61477;SDS011;47345;52.334;10.392;2023-06-01T01:33:53;4.90;;;3.30;;
61477;SDS011;47345;52.334;10.392;2023-06-01T01:36:25;6.60;;;3.30;;
61477;SDS011;47345;52.334;10.392;2023-06-01T01:38:56;6.50;;;3.70;;
61477;SDS011;47345;52.334;10.392;2023-06-01T01:41:27;11.20;;;4.90;;
61477;SDS011;47345;52.334;10.392;2023-06-01T01:43:59;7.00;;;3.90;;
61477;SDS011;47345;52.334;10.392;2023-06-01T01:46:32;7.10;;;3.60;;
61477;SDS011;47345;52.334;10.392;2023-06-01T01:49:11;5.10;;;3.50;;
61477;SDS011;47345;52.334;10.392;2023-06-01T01:51:48;5.40;;;3.90;;
61477;SDS011;47345;52.334;10.392;2023-06-01T01:54:23;5.70;;;3.20;;
61477;SDS011;47345;52.334;10.392;2023-06-01T01:56:56;5.60;;;3.00;;
61477;SDS011;47345;52.334;10.392;2023-06-01T01:59:28;6.10;;;3.50;;
61477;SDS011;47345;52.334;10.392;2023-06-01T02:02:00;9.70;;;3.60;;
61477;SDS011;47345;52.334;10.392;2023-06-01T02:04:31;5.70;;;2.90;;
61477;SDS011;47345;52.334;10.392;2023-06-01T02:07:06;6.50;;;3.30;;
61477;SDS011;47345;52.334;10.392;2023-06-01T02:09:37;6.50;;;2.90;;
61477;SDS011;47345;52.334;10.392;2023-06-01T02:12:10;7.10;;;2.50;;
61477;SDS011;47345;52.334;10.392;2023-06-01T02:14:41;6.00;;;3.10;;
61477;SDS011;47345;52.334;10.392;2023-06-01T02:17:12;6.20;;;3.50;;
61477;SDS011;47345;52.334;10.392;2023-06-01T02:19:43;4.50;;;3.10;;
61477;SDS011;47345;52.334;10.392;2023-06-01T02:22:14;3.50;;;2.50;;
61477;SDS011;47345;52.334;10.392;2023-06-01T02:24:45;9.40;;;3.80;;
61477;SDS011;47345;52.334;10.392;2023-06-01T02:27:16;6.20;;;3.50;;
61477;SDS011;47345;52.334;10.392;2023-06-01T02:29:47;4.50;;;3.30;;
61477;SDS011;47345;52.334;10.392;2023-06-01T02:32:18;6.30;;;3.00;;
61477;SDS011;47345;52.334;10.392;2023-06-01T02:34:48;5.30;;;3.10;;
61477;SDS011;47345;52.334;10.392;2023-06-01T02:37:20;7.50;;;2.60;;
61477;SDS011;47345;52.334;10.392;2023-06-01T02:39:51;4.30;;;2.70;;
61477;SDS011;47345;52.334;10.392;2023-06-01T02:42:22;7.50;;;3.50;;
61477;SDS011;47345;52.334;10.392;2023-06-01T02:44:53;4.50;;;2.90;;
61477;SDS011;47345;52.334;10.392;2023-06-01T02:47:24;6.00;;;3.20;;
61477;SDS011;47345;52.334;10.392;2023-06-01T02:49:54;5.70;;;3.20;;
61477;SDS011;47345;52.334;10.392;2023-06-01T02:52:25;4.70;;;3.50;;
61477;SDS011;47345;52.334;10.392;2023-06-01T02:54:56;7.70;;;3.20;;
61477;SDS011;47345;52.334;10.392;2023-06-01T02:57:27;8.30;;;3.60;;
61477;SDS011;47345;52.334;10.392;2023-06-01T02:59:58;11.40;;;3.60;;
61477;SDS011;47345;52.334;10.392;2023-06-01T03:02:29;9.30;;;3.10;;
61477;SDS011;47345;52.334;10.392;2023-06-01T03:05:00;6.00;;;3.20;;
61477;SDS011;47345;52.334;10.392;2023-06-01T03:07:33;10.20;;;3.30;;
61477;SDS011;47345;52.334;10.392;2023-06-01T03:10:05;7.60;;;3.20;;
61477;SDS011;47345;52.334;10.392;2023-06-01T03:12:37;5.40;;;2.70;;
61477;SDS011;47345;52.334;10.392;2023-06-01T03:15:09;5.60;;;2.90;;
61477;SDS011;47345;52.334;10.392;2023-06-01T03:17:40;8.30;;;3.10;;
61477;SDS011;47345;52.334;10.392;2023-06-01T03:20:11;6.10;;;3.50;;
61477;SDS011;47345;52.334;10.392;2023-06-01T03:22:43;6.00;;;3.90;;
61477;SDS011;47345;52.334;10.392;2023-06-01T03:25:14;7.50;;;3.50;;
61477;SDS011;47345;52.334;10.392;2023-06-01T03:27:45;7.40;;;3.60;;
61477;SDS011;47345;52.334;10.392;2023-06-01T03:30:16;8.80;;;4.00;;
61477;SDS011;47345;52.334;10.392;2023-06-01T03:32:47;10.70;;;4.00;;
61477;SDS011;47345;52.334;10.392;2023-06-01T03:35:18;7.50;;;3.70;;
61477;SDS011;47345;52.334;10.392;2023-06-01T03:37:49;7.50;;;3.70;;
61477;SDS011;47345;52.334;10.392;2023-06-01T03:40:20;5.40;;;3.10;;
61477;SDS011;47345;52.334;10.392;2023-06-01T03:42:51;6.40;;;3.90;;
61477;SDS011;47345;52.334;10.392;2023-06-01T03:45:22;4.50;;;3.10;;
61477;SDS011;47345;52.334;10.392;2023-06-01T03:47:53;6.20;;;3.50;;
61477;SDS011;47345;52.334;10.392;2023-06-01T03:50:24;10.90;;;4.10;;
61477;SDS011;47345;52.334;10.392;2023-06-01T03:52:55;9.50;;;3.80;;
61477;SDS011;47345;52.334;10.392;2023-06-01T03:55:25;5.70;;;3.90;;
61477;SDS011;47345;52.334;10.392;2023-06-01T03:57:57;6.50;;;3.30;;
61477;SDS011;47345;52.334;10.392;2023-06-01T04:00:30;8.00;;;3.90;;
61477;SDS011;47345;52.334;10.392;2023-06-01T04:03:01;7.10;;;3.80;;
61477;SDS011;47345;52.334;10.392;2023-06-01T04:05:35;8.70;;;3.50;;
61477;SDS011;47345;52.334;10.392;2023-06-01T04:08:06;4.90;;;3.00;;
61477;SDS011;47345;52.334;10.392;2023-06-01T04:10:37;4.10;;;3.40;;
61477;SDS011;47345;52.334;10.392;2023-06-01T04:13:09;5.40;;;3.80;;
61477;SDS011;47345;52.334;10.392;2023-06-01T04:15:40;5.90;;;3.20;;
61477;SDS011;47345;52.334;10.392;2023-06-01T04:18:10;7.00;;;3.50;;
61477;SDS011;47345;52.334;10.392;2023-06-01T04:20:41;11.20;;;4.00;;
61477;SDS011;47345;52.334;10.392;2023-06-01T04:23:12;6.70;;;3.90;;
61477;SDS011;47345;52.334;10.392;2023-06-01T04:25:44;6.80;;;4.00;;
61477;SDS011;47345;52.334;10.392;2023-06-01T04:28:18;8.10;;;4.00;;
61477;SDS011;47345;52.334;10.392;2023-06-01T04:30:49;4.90;;;3.00;;
61477;SDS011;47345;52.334;10.392;2023-06-01T04:33:20;9.30;;;3.90;;
61477;SDS011;47345;52.334;10.392;2023-06-01T04:35:52;6.50;;;3.30;;
61477;SDS011;47345;52.334;10.392;2023-06-01T04:38:23;5.00;;;3.10;;
61477;SDS011;47345;52.334;10.392;2023-06-01T04:40:54;7.40;;;3.20;;
61477;SDS011;47345;52.334;10.392;2023-06-01T04:43:25;5.90;;;3.40;;
61477;SDS011;47345;52.334;10.392;2023-06-01T04:45:56;8.60;;;3.60;;
61477;SDS011;47345;52.334;10.392;2023-06-01T04:48:31;6.80;;;3.20;;
61477;SDS011;47345;52.334;10.392;2023-06-01T04:51:02;7.60;;;4.10;;
61477;SDS011;47345;52.334;10.392;2023-06-01T04:53:33;8.00;;;4.30;;
61477;SDS011;47345;52.334;10.392;2023-06-01T04:56:04;5.80;;;3.60;;
61477;SDS011;47345;52.334;10.392;2023-06-01T04:58:35;6.00;;;3.60;;
61477;SDS011;47345;52.334;10.392;2023-06-01T05:01:07;4.70;;;3.00;;
61477;SDS011;47345;52.334;10.392;2023-06-01T05:03:43;5.70;;;3.40;;
61477;SDS011;47345;52.334;10.392;2023-06-01T05:06:14;6.20;;;3.80;;
61477;SDS011;47345;52.334;10.392;2023-06-01T05:08:45;4.00;;;2.70;;
61477;SDS011;47345;52.334;10.392;2023-06-01T05:11:17;6.20;;;3.80;;
61477;SDS011;47345;52.334;10.392;2023-06-01T05:13:49;7.00;;;3.80;;
61477;SDS011;47345;52.334;10.392;2023-06-01T05:16:20;6.80;;;3.50;;
61477;SDS011;47345;52.334;10.392;2023-06-01T05:18:51;5.60;;;3.50;;
61477;SDS011;47345;52.334;10.392;2023-06-01T05:21:22;7.00;;;3.20;;
61477;SDS011;47345;52.334;10.392;2023-06-01T05:23:52;5.90;;;3.40;;
61477;SDS011;47345;52.334;10.392;2023-06-01T05:26:23;4.50;;;3.20;;
61477;SDS011;47345;52.334;10.392;2023-06-01T05:28:54;8.60;;;3.90;;
61477;SDS011;47345;52.334;10.392;2023-06-01T05:31:25;11.40;;;3.70;;
61477;SDS011;47345;52.334;10.392;2023-06-01T05:33:56;8.50;;;4.30;;
61477;SDS011;47345;52.334;10.392;2023-06-01T05:36:27;7.70;;;4.10;;
61477;SDS011;47345;52.334;10.392;2023-06-01T05:38:59;6.60;;;3.80;;
61477;SDS011;47345;52.334;10.392;2023-06-01T05:41:31;9.50;;;3.70;;
61477;SDS011;47345;52.334;10.392;2023-06-01T05:44:02;3.90;;;3.10;;
61477;SDS011;47345;52.334;10.392;2023-06-01T05:46:33;6.40;;;4.00;;
61477;SDS011;47345;52.334;10.392;2023-06-01T05:49:04;7.10;;;3.10;;
61477;SDS011;47345;52.334;10.392;2023-06-01T05:51:34;10.10;;;4.00;;
61477;SDS011;47345;52.334;10.392;2023-06-01T05:54:08;6.80;;;3.20;;
61477;SDS011;47345;52.334;10.392;2023-06-01T05:56:39;6.60;;;3.50;;
61477;SDS011;47345;52.334;10.392;2023-06-01T05:59:10;4.60;;;3.20;;
61477;SDS011;47345;52.334;10.392;2023-06-01T06:01:41;8.60;;;3.50;;
61477;SDS011;47345;52.334;10.392;2023-06-01T06:04:13;6.60;;;3.90;;
61477;SDS011;47345;52.334;10.392;2023-06-01T06:06:44;4.70;;;2.50;;
61477;SDS011;47345;52.334;10.392;2023-06-01T06:09:15;7.20;;;2.90;;
61477;SDS011;47345;52.334;10.392;2023-06-01T06:11:45;6.00;;;3.70;;
61477;SDS011;47345;52.334;10.392;2023-06-01T06:14:17;5.00;;;3.30;;
61477;SDS011;47345;52.334;10.392;2023-06-01T06:16:49;5.30;;;3.20;;
61477;SDS011;47345;52.334;10.392;2023-06-01T06:19:20;7.50;;;3.50;;
61477;SDS011;47345;52.334;10.392;2023-06-01T06:21:50;5.60;;;2.70;;
61477;SDS011;47345;52.334;10.392;2023-06-01T06:24:21;6.60;;;3.30;;
61477;SDS011;47345;52.334;10.392;2023-06-01T06:26:52;6.20;;;3.00;;
61477;SDS011;47345;52.334;10.392;2023-06-01T06:29:22;6.50;;;3.00;;
61477;SDS011;47345;52.334;10.392;2023-06-01T06:31:53;4.00;;;2.90;;
61477;SDS011;47345;52.334;10.392;2023-06-01T06:34:24;2.70;;;2.20;;
61477;SDS011;47345;52.334;10.392;2023-06-01T06:37:01;4.80;;;3.00;;
61477;SDS011;47345;52.334;10.392;2023-06-01T06:39:34;2.70;;;2.40;;
61477;SDS011;47345;52.334;10.392;2023-06-01T06:42:05;3.80;;;2.70;;
61477;SDS011;47345;52.334;10.392;2023-06-01T06:44:36;5.60;;;2.30;;
61477;SDS011;47345;52.334;10.392;2023-06-01T06:47:07;5.20;;;2.40;;
61477;SDS011;47345;52.334;10.392;2023-06-01T06:49:42;4.80;;;3.10;;
61477;SDS011;47345;52.334;10.392;2023-06-01T06:52:13;3.80;;;2.30;;
61477;SDS011;47345;52.334;10.392;2023-06-01T06:54:44;3.50;;;2.50;;
61477;SDS011;47345;52.334;10.392;2023-06-01T06:57:15;4.40;;;2.50;;
61477;SDS011;47345;52.334;10.392;2023-06-01T06:59:45;3.30;;;2.40;;
61477;SDS011;47345;52.334;10.392;2023-06-01T07:02:17;9.40;;;2.40;;
61477;SDS011;47345;52.334;10.392;2023-06-01T07:04:48;5.80;;;2.70;;
61477;SDS011;47345;52.334;10.392;2023-06-01T07:07:19;4.30;;;2.30;;
61477;SDS011;47345;52.334;10.392;2023-06-01T07:09:50;4.20;;;2.60;;
61477;SDS011;47345;52.334;10.392;2023-06-01T07:12:21;5.00;;;2.30;;
61477;SDS011;47345;52.334;10.392;2023-06-01T07:14:52;3.50;;;2.20;;
61477;SDS011;47345;52.334;10.392;2023-06-01T07:17:23;5.70;;;2.80;;
61477;SDS011;47345;52.334;10.392;2023-06-01T07:19:54;7.40;;;2.50;;
61477;SDS011;47345;52.334;10.392;2023-06-01T07:22:25;7.60;;;2.50;;
61477;SDS011;47345;52.334;10.392;2023-06-01T07:24:56;4.90;;;2.50;;
61477;SDS011;47345;52.334;10.392;2023-06-01T07:27:28;6.90;;;3.10;;
61477;SDS011;47345;52.334;10.392;2023-06-01T07:29:59;4.40;;;2.40;;
61477;SDS011;47345;52.334;10.392;2023-06-01T07:32:30;6.20;;;2.70;;
61477;SDS011;47345;52.334;10.392;2023-06-01T07:35:01;5.80;;;2.70;;
61477;SDS011;47345;52.334;10.392;2023-06-01T07:37:34;3.80;;;2.40;;
61477;SDS011;47345;52.334;10.392;2023-06-01T07:40:06;3.60;;;2.40;;
61477;SDS011;47345;52.334;10.392;2023-06-01T07:42:40;5.00;;;2.70;;
61477;SDS011;47345;52.334;10.392;2023-06-01T07:45:12;4.80;;;2.90;;
61477;SDS011;47345;52.334;10.392;2023-06-01T07:47:45;8.60;;;3.10;;
61477;SDS011;47345;52.334;10.392;2023-06-01T07:50:16;5.30;;;3.10;;
61477;SDS011;47345;52.334;10.392;2023-06-01T07:52:47;9.10;;;2.80;;
61477;SDS011;47345;52.334;10.392;2023-06-01T07:55:20;5.30;;;2.50;;
61477;SDS011;47345;52.334;10.392;2023-06-01T07:57:51;6.10;;;3.30;;
61477;SDS011;47345;52.334;10.392;2023-06-01T08:00:22;5.20;;;2.70;;
61477;SDS011;47345;52.334;10.392;2023-06-01T08:02:54;5.40;;;2.70;;
61477;SDS011;47345;52.334;10.392;2023-06-01T08:05:26;5.80;;;3.50;;
61477;SDS011;47345;52.334;10.392;2023-06-01T08:07:57;8.00;;;3.00;;
61477;SDS011;47345;52.334;10.392;2023-06-01T08:10:28;9.80;;;3.00;;
61477;SDS011;47345;52.334;10.392;2023-06-01T08:12:59;7.20;;;3.00;;
61477;SDS011;47345;52.334;10.392;2023-06-01T08:15:31;9.30;;;3.40;;
61477;SDS011;47345;52.334;10.392;2023-06-01T08:18:05;4.80;;;2.30;;
61477;SDS011;47345;52.334;10.392;2023-06-01T08:20:36;6.00;;;3.00;;
61477;SDS011;47345;52.334;10.392;2023-06-01T08:23:07;6.90;;;3.00;;
61477;SDS011;47345;52.334;10.392;2023-06-01T08:25:39;4.60;;;2.90;;
61477;SDS011;47345;52.334;10.392;2023-06-01T08:28:10;6.60;;;3.10;;
61477;SDS011;47345;52.334;10.392;2023-06-01T08:30:41;4.90;;;3.30;;
61477;SDS011;47345;52.334;10.392;2023-06-01T08:33:12;6.70;;;2.90;;
61477;SDS011;47345;52.334;10.392;2023-06-01T08:35:44;6.90;;;3.20;;
61477;SDS011;47345;52.334;10.392;2023-06-01T08:38:15;4.40;;;3.00;;
61477;SDS011;47345;52.334;10.392;2023-06-01T08:40:45;3.70;;;3.10;;
61477;SDS011;47345;52.334;10.392;2023-06-01T08:43:18;8.00;;;3.40;;
61477;SDS011;47345;52.334;10.392;2023-06-01T08:45:51;6.90;;;3.00;;
61477;SDS011;47345;52.334;10.392;2023-06-01T08:48:24;5.80;;;3.50;;
61477;SDS011;47345;52.334;10.392;2023-06-01T08:50:56;7.80;;;2.70;;
61477;SDS011;47345;52.334;10.392;2023-06-01T08:53:28;5.50;;;2.90;;
61477;SDS011;47345;52.334;10.392;2023-06-01T08:56:00;7.90;;;3.40;;
61477;SDS011;47345;52.334;10.392;2023-06-01T08:58:32;5.90;;;3.40;;
61477;SDS011;47345;52.334;10.392;2023-06-01T09:01:04;7.60;;;3.70;;
61477;SDS011;47345;52.334;10.392;2023-06-01T09:03:35;11.70;;;4.00;;
61477;SDS011;47345;52.334;10.392;2023-06-01T09:06:06;6.40;;;3.40;;
61477;SDS011;47345;52.334;10.392;2023-06-01T09:08:38;9.70;;;3.80;;
61477;SDS011;47345;52.334;10.392;2023-06-01T09:11:09;7.00;;;3.40;;
61477;SDS011;47345;52.334;10.392;2023-06-01T09:13:40;6.00;;;3.20;;
61477;SDS011;47345;52.334;10.392;2023-06-01T09:16:11;8.20;;;3.70;;
61477;SDS011;47345;52.334;10.392;2023-06-01T09:18:51;4.60;;;3.20;;
61477;SDS011;47345;52.334;10.392;2023-06-01T09:21:23;6.90;;;3.50;;
61477;SDS011;47345;52.334;10.392;2023-06-01T09:23:55;9.80;;;3.60;;
61477;SDS011;47345;52.334;10.392;2023-06-01T09:26:48;6.90;;;3.70;;
61477;SDS011;47345;52.334;10.392;2023-06-01T09:29:20;8.50;;;3.10;;
61477;SDS011;47345;52.334;10.392;2023-06-01T09:31:51;5.80;;;2.90;;
61477;SDS011;47345;52.334;10.392;2023-06-01T09:34:22;6.00;;;3.20;;
61477;SDS011;47345;52.334;10.392;2023-06-01T09:36:54;10.10;;;2.70;;
61477;SDS011;47345;52.334;10.392;2023-06-01T09:39:25;6.80;;;2.90;;
61477;SDS011;47345;52.334;10.392;2023-06-01T09:42:02;8.30;;;3.10;;
61477;SDS011;47345;52.334;10.392;2023-06-01T09:44:34;5.70;;;3.00;;
61477;SDS011;47345;52.334;10.392;2023-06-01T09:47:07;3.90;;;2.50;;
61477;SDS011;47345;52.334;10.392;2023-06-01T09:49:42;6.60;;;2.90;;
61477;SDS011;47345;52.334;10.392;2023-06-01T09:52:14;4.60;;;2.50;;
61477;SDS011;47345;52.334;10.392;2023-06-01T09:54:46;4.10;;;2.50;;
61477;SDS011;47345;52.334;10.392;2023-06-01T09:57:21;5.20;;;2.60;;
61477;SDS011;47345;52.334;10.392;2023-06-01T09:59:53;3.00;;;2.10;;
61477;SDS011;47345;52.334;10.392;2023-06-01T10:02:24;8.90;;;2.50;;
61477;SDS011;47345;52.334;10.392;2023-06-01T10:04:55;6.00;;;2.60;;
61477;SDS011;47345;52.334;10.392;2023-06-01T10:07:27;6.60;;;2.50;;
61477;SDS011;47345;52.334;10.392;2023-06-01T10:10:01;4.30;;;2.60;;
61477;SDS011;47345;52.334;10.392;2023-06-01T10:12:32;5.80;;;2.50;;
61477;SDS011;47345;52.334;10.392;2023-06-01T10:15:04;2.70;;;2.30;;
61477;SDS011;47345;52.334;10.392;2023-06-01T10:17:56;7.10;;;2.70;;
61477;SDS011;47345;52.334;10.392;2023-06-01T10:20:28;3.00;;;1.90;;
61477;SDS011;47345;52.334;10.392;2023-06-01T10:23:00;5.20;;;2.00;;
61477;SDS011;47345;52.334;10.392;2023-06-01T10:25:37;3.10;;;2.20;;
61477;SDS011;47345;52.334;10.392;2023-06-01T10:28:11;2.70;;;2.10;;
61477;SDS011;47345;52.334;10.392;2023-06-01T10:30:45;4.30;;;2.30;;
61477;SDS011;47345;52.334;10.392;2023-06-01T10:36:24;3.60;;;2.70;;
61477;SDS011;47345;52.334;10.392;2023-06-01T10:39:23;3.00;;;2.70;;
61477;SDS011;47345;52.334;10.392;2023-06-01T10:41:55;3.50;;;2.40;;
61477;SDS011;47345;52.334;10.392;2023-06-01T10:44:46;4.90;;;2.40;;
61477;SDS011;47345;52.334;10.392;2023-06-01T10:50:18;6.10;;;3.00;;
61477;SDS011;47345;52.334;10.392;2023-06-01T10:52:49;2.80;;;2.40;;
61477;SDS011;47345;52.334;10.392;2023-06-01T10:55:24;4.50;;;2.50;;
61477;SDS011;47345;52.334;10.392;2023-06-01T11:00:52;4.70;;;3.00;;
61477;SDS011;47345;52.334;10.392;2023-06-01T11:03:43;5.30;;;2.60;;
61477;SDS011;47345;52.334;10.392;2023-06-01T11:06:24;5.40;;;3.50;;
61477;SDS011;47345;52.334;10.392;2023-06-01T11:08:59;2.80;;;2.30;;
61477;SDS011;47345;52.334;10.392;2023-06-01T11:14:30;4.40;;;2.10;;
61477;SDS011;47345;52.334;10.392;2023-06-01T11:20:01;3.90;;;2.10;;
61477;SDS011;47345;52.334;10.392;2023-06-01T11:22:39;2.70;;;2.40;;
61477;SDS011;47345;52.334;10.392;2023-06-01T11:25:10;3.90;;;2.90;;
61477;SDS011;47345;52.334;10.392;2023-06-01T11:27:46;4.30;;;2.40;;
61477;SDS011;47345;52.334;10.392;2023-06-01T11:30:21;3.30;;;2.40;;
61477;SDS011;47345;52.334;10.392;2023-06-01T11:32:52;2.80;;;2.00;;
61477;SDS011;47345;52.334;10.392;2023-06-01T11:35:26;2.20;;;2.00;;
61477;SDS011;47345;52.334;10.392;2023-06-01T11:37:57;2.50;;;2.30;;
61477;SDS011;47345;52.334;10.392;2023-06-01T11:40:28;3.20;;;2.40;;
61477;SDS011;47345;52.334;10.392;2023-06-01T11:43:06;3.90;;;2.30;;
61477;SDS011;47345;52.334;10.392;2023-06-01T11:45:37;3.50;;;2.30;;
61477;SDS011;47345;52.334;10.392;2023-06-01T11:48:12;2.80;;;2.40;;
61477;SDS011;47345;52.334;10.392;2023-06-01T11:50:47;4.10;;;2.10;;
61477;SDS011;47345;52.334;10.392;2023-06-01T11:53:17;3.80;;;2.30;;
61477;SDS011;47345;52.334;10.392;2023-06-01T11:55:49;5.20;;;2.30;;
61477;SDS011;47345;52.334;10.392;2023-06-01T11:58:24;4.20;;;2.40;;
61477;SDS011;47345;52.334;10.392;2023-06-01T12:00:57;2.30;;;2.10;;
61477;SDS011;47345;52.334;10.392;2023-06-01T12:03:28;2.90;;;2.30;;
61477;SDS011;47345;52.334;10.392;2023-06-01T12:06:00;4.30;;;2.40;;
61477;SDS011;47345;52.334;10.392;2023-06-01T12:08:30;3.10;;;2.50;;
61477;SDS011;47345;52.334;10.392;2023-06-01T12:11:01;7.10;;;3.20;;
61477;SDS011;47345;52.334;10.392;2023-06-01T12:13:32;3.20;;;2.30;;
61477;SDS011;47345;52.334;10.392;2023-06-01T12:16:04;8.50;;;2.30;;
61477;SDS011;47345;52.334;10.392;2023-06-01T12:18:49;3.30;;;2.10;;
61477;SDS011;47345;52.334;10.392;2023-06-01T12:21:19;3.00;;;1.80;;
61477;SDS011;47345;52.334;10.392;2023-06-01T12:23:50;2.90;;;2.10;;
61477;SDS011;47345;52.334;10.392;2023-06-01T12:26:22;4.20;;;1.90;;
61477;SDS011;47345;52.334;10.392;2023-06-01T12:29:06;3.70;;;2.00;;
61477;SDS011;47345;52.334;10.392;2023-06-01T12:31:37;3.00;;;2.00;;
61477;SDS011;47345;52.334;10.392;2023-06-01T12:34:16;3.90;;;1.90;;
61477;SDS011;47345;52.334;10.392;2023-06-01T12:36:47;3.60;;;2.10;;
61477;SDS011;47345;52.334;10.392;2023-06-01T12:39:24;2.60;;;2.30;;
61477;SDS011;47345;52.334;10.392;2023-06-01T12:42:05;2.40;;;2.00;;
61477;SDS011;47345;52.334;10.392;2023-06-01T12:44:37;5.30;;;2.80;;
61477;SDS011;47345;52.334;10.392;2023-06-01T12:47:09;3.10;;;2.60;;
61477;SDS011;47345;52.334;10.392;2023-06-01T12:49:40;2.50;;;2.30;;
61477;SDS011;47345;52.334;10.392;2023-06-01T12:52:36;5.70;;;2.60;;
61477;SDS011;47345;52.334;10.392;2023-06-01T12:55:08;3.10;;;2.70;;
61477;SDS011;47345;52.334;10.392;2023-06-01T12:57:39;7.40;;;2.60;;
61477;SDS011;47345;52.334;10.392;2023-06-01T13:00:12;5.60;;;2.80;;
61477;SDS011;47345;52.334;10.392;2023-06-01T13:02:44;3.80;;;3.00;;
61477;SDS011;47345;52.334;10.392;2023-06-01T13:05:17;5.70;;;2.80;;
61477;SDS011;47345;52.334;10.392;2023-06-01T13:07:48;4.20;;;2.90;;
61477;SDS011;47345;52.334;10.392;2023-06-01T13:10:18;2.70;;;2.10;;
61477;SDS011;47345;52.334;10.392;2023-06-01T13:12:49;2.70;;;2.20;;
61477;SDS011;47345;52.334;10.392;2023-06-01T13:15:20;2.50;;;2.30;;
61477;SDS011;47345;52.334;10.392;2023-06-01T13:17:51;7.10;;;2.80;;
61477;SDS011;47345;52.334;10.392;2023-06-01T13:20:23;6.60;;;2.20;;
61477;SDS011;47345;52.334;10.392;2023-06-01T13:22:55;3.30;;;2.40;;
61477;SDS011;47345;52.334;10.392;2023-06-01T13:25:26;3.00;;;2.50;;
61477;SDS011;47345;52.334;10.392;2023-06-01T13:27:56;3.60;;;2.80;;
61477;SDS011;47345;52.334;10.392;2023-06-01T13:30:28;9.90;;;2.90;;
61477;SDS011;47345;52.334;10.392;2023-06-01T13:33:01;6.00;;;2.60;;
61477;SDS011;47345;52.334;10.392;2023-06-01T13:35:32;6.00;;;2.80;;
61477;SDS011;47345;52.334;10.392;2023-06-01T13:38:03;3.00;;;2.50;;
61477;SDS011;47345;52.334;10.392;2023-06-01T13:40:34;3.40;;;2.70;;
61477;SDS011;47345;52.334;10.392;2023-06-01T13:43:05;2.80;;;2.30;;
61477;SDS011;47345;52.334;10.392;2023-06-01T13:45:36;7.00;;;2.90;;
61477;SDS011;47345;52.334;10.392;2023-06-01T13:48:07;6.00;;;2.70;;
61477;SDS011;47345;52.334;10.392;2023-06-01T13:50:42;3.70;;;2.60;;
61477;SDS011;47345;52.334;10.392;2023-06-01T13:53:13;4.10;;;2.60;;
61477;SDS011;47345;52.334;10.392;2023-06-01T13:55:44;7.90;;;3.60;;
61477;SDS011;47345;52.334;10.392;2023-06-01T13:58:15;3.40;;;2.60;;
61477;SDS011;47345;52.334;10.392;2023-06-01T14:00:46;6.70;;;2.90;;
61477;SDS011;47345;52.334;10.392;2023-06-01T14:03:20;4.20;;;2.50;;
61477;SDS011;47345;52.334;10.392;2023-06-01T14:05:51;7.40;;;2.90;;
61477;SDS011;47345;52.334;10.392;2023-06-01T14:08:25;4.70;;;3.20;;
61477;SDS011;47345;52.334;10.392;2023-06-01T14:10:55;4.20;;;2.70;;
61477;SDS011;47345;52.334;10.392;2023-06-01T14:13:26;9.40;;;5.60;;
61477;SDS011;47345;52.334;10.392;2023-06-01T14:15:58;7.10;;;3.00;;
61477;SDS011;47345;52.334;10.392;2023-06-01T14:18:29;4.10;;;2.60;;
61477;SDS011;47345;52.334;10.392;2023-06-01T14:21:00;6.90;;;2.80;;
61477;SDS011;47345;52.334;10.392;2023-06-01T14:23:31;4.70;;;3.20;;
61477;SDS011;47345;52.334;10.392;2023-06-01T14:26:01;6.50;;;2.90;;
61477;SDS011;47345;52.334;10.392;2023-06-01T14:28:32;6.10;;;2.70;;
61477;SDS011;47345;52.334;10.392;2023-06-01T14:31:03;4.90;;;2.60;;
61477;SDS011;47345;52.334;10.392;2023-06-01T14:33:34;6.20;;;2.80;;
61477;SDS011;47345;52.334;10.392;2023-06-01T14:36:05;4.20;;;2.50;;
61477;SDS011;47345;52.334;10.392;2023-06-01T14:38:36;8.80;;;2.90;;
61477;SDS011;47345;52.334;10.392;2023-06-01T14:41:06;4.60;;;2.70;;
61477;SDS011;47345;52.334;10.392;2023-06-01T14:43:38;4.70;;;2.40;;
61477;SDS011;47345;52.334;10.392;2023-06-01T14:46:08;4.80;;;2.70;;
61477;SDS011;47345;52.334;10.392;2023-06-01T14:48:39;4.50;;;2.90;;
61477;SDS011;47345;52.334;10.392;2023-06-01T14:51:10;4.00;;;2.60;;
61477;SDS011;47345;52.334;10.392;2023-06-01T14:53:41;3.70;;;2.80;;
61477;SDS011;47345;52.334;10.392;2023-06-01T14:56:13;6.00;;;2.80;;
61477;SDS011;47345;52.334;10.392;2023-06-01T14:58:45;5.60;;;2.60;;
61477;SDS011;47345;52.334;10.392;2023-06-01T15:01:15;4.40;;;2.80;;
61477;SDS011;47345;52.334;10.392;2023-06-01T15:03:46;5.30;;;2.70;;
61477;SDS011;47345;52.334;10.392;2023-06-01T15:06:17;4.10;;;2.40;;
61477;SDS011;47345;52.334;10.392;2023-06-01T15:08:48;6.20;;;2.60;;
61477;SDS011;47345;52.334;10.392;2023-06-01T15:11:19;3.50;;;2.40;;
61477;SDS011;47345;52.334;10.392;2023-06-01T15:13:50;6.60;;;2.40;;
61477;SDS011;47345;52.334;10.392;2023-06-01T15:16:21;4.70;;;2.60;;
61477;SDS011;47345;52.334;10.392;2023-06-01T15:18:53;6.70;;;2.90;;